Urundel, Argentina
Current Conditions -  °F | °C
As of 7:00 AM on Thursday 29 Jan 2015 (Local Time) from SASJ Reporting Station
Overcast Overcast  
Wind Chill: 68°   Ceiling: 7000
Heat Index: 68°   Visibility: 5mi
Dew Point: 64°   Wind: 6mph
Humidity: 88%   Direction: 180°S
Pressure: 30.09"   Gusts: NA
Location:  23.55°S, 64.42°W
Report Text: SASJ 291000Z 18005KT 8000 FEW008 SCT020OVC070 20/18 Q1019
Loading
Personal Weather Stations






























Interactive Weather Map New forecast layout! Learn more

10-Day Weather Forecast

Advertisements
Track Severe Weather on mobile